Time;durP1;ratioP1;P1;durP2;ratioP2;P2;SDS_P1;SDS_P2;PMS_P1;PMS_P2;Temp;Humidity;BMP_temperature;BMP_pressure;BME280_temperature;BME280_humidity;BME280_pressure;Samples;Min_cycle;Max_cycle;Signal;HPM_P1;HPM_P2
2023/03/01 00:02:22;;;;;;;0.60;0.60;;;;;;;6.68;100.00;100194.78;5020618;28;20205;-65
2023/03/01 00:04:52;;;;;;;0.60;0.60;;;;;;;6.65;100.00;100189.72;5020801;28;20214;-64
2023/03/01 00:07:19;;;;;;;0.63;0.63;;;;;;;6.62;100.00;100199.91;5022619;28;20194;-64
2023/03/01 00:09:46;;;;;;;0.60;0.60;;;;;;;6.59;100.00;100194.81;5017124;28;20720;-65
2023/03/01 00:12:13;;;;;;;0.50;0.50;;;;;;;6.71;100.00;100197.34;5016985;28;20814;-65
2023/03/01 00:14:40;;;;;;;0.50;0.50;;;;;;;6.75;100.00;100186.28;5016945;28;20627;-65
2023/03/01 00:17:08;;;;;;;0.60;0.60;;;;;;;6.75;100.00;100193.94;5018692;28;20264;-64
2023/03/01 00:19:35;;;;;;;0.60;0.60;;;;;;;6.77;100.00;100194.78;5028339;28;20202;-64
2023/03/01 00:22:02;;;;;;;0.50;0.50;;;;;;;6.74;100.00;100198.19;5028557;28;20209;-64
2023/03/01 00:24:29;;;;;;;0.40;0.40;;;;;;;6.77;100.00;100187.13;5015550;28;20202;-65
2023/03/01 00:26:56;;;;;;;0.60;0.60;;;;;;;6.78;100.00;100181.19;5014155;28;20202;-64
2023/03/01 00:29:23;;;;;;;0.60;0.60;;;;;;;6.74;100.00;100184.59;5021430;28;20222;-64
2023/03/01 00:31:50;;;;;;;0.50;0.50;;;;;;;6.69;100.00;100187.13;4999325;28;20679;-64
2023/03/01 00:34:18;;;;;;;0.70;0.70;;;;;;;6.77;100.00;100176.94;5008889;28;20662;-64
2023/03/01 00:36:45;;;;;;;0.80;0.80;;;;;;;6.79;100.00;100180.31;5012738;28;20198;-64
2023/03/01 00:39:14;;;;;;;0.50;0.50;;;;;;;6.78;100.00;100178.63;5003460;28;20198;-64
2023/03/01 00:41:41;;;;;;;0.60;0.60;;;;;;;6.78;100.00;100183.72;4995270;28;20199;-64
2023/03/01 00:44:08;;;;;;;0.50;0.50;;;;;;;6.78;100.00;100188.84;5004422;28;20202;-64
2023/03/01 00:46:34;;;;;;;0.50;0.50;;;;;;;6.81;100.00;100178.63;5002507;28;20213;-65
2023/03/01 00:49:02;;;;;;;0.50;0.50;;;;;;;6.74;100.00;100170.16;4995929;28;20210;-65
2023/03/01 00:51:30;;;;;;;0.50;0.50;;;;;;;6.71;100.00;100146.38;5007053;28;20309;-64
2023/03/01 00:54:00;;;;;;;0.57;0.57;;;;;;;6.75;100.00;100158.25;5002026;28;20666;-65
2023/03/01 00:56:27;;;;;;;0.60;0.60;;;;;;;6.80;100.00;100162.47;5002656;28;20210;-65
2023/03/01 00:58:54;;;;;;;0.63;0.60;;;;;;;6.84;100.00;100163.31;5009206;28;20201;-64
2023/03/01 01:01:23;;;;;;;0.40;0.40;;;;;;;6.83;100.00;100147.19;5005731;28;20252;-65
2023/03/01 01:03:51;;;;;;;0.50;0.50;;;;;;;6.81;100.00;100154.00;5008109;28;20202;-65
2023/03/01 01:06:20;;;;;;;0.60;0.60;;;;;;;6.88;100.00;100154.81;5005447;28;20202;-64
2023/03/01 01:08:49;;;;;;;0.60;0.60;;;;;;;6.90;100.00;100154.81;4999314;28;21082;-65
2023/03/01 01:11:17;;;;;;;0.50;0.50;;;;;;;6.79;100.00;100145.50;5003396;28;20222;-64
2023/03/01 01:13:45;;;;;;;0.60;0.60;;;;;;;6.78;100.00;100137.88;5000136;28;20198;-65
2023/03/01 01:16:12;;;;;;;0.50;0.50;;;;;;;6.83;100.00;100142.09;5003954;28;20205;-65
2023/03/01 01:18:40;;;;;;;0.50;0.50;;;;;;;6.86;100.00;100146.31;5002660;28;20209;-64
2023/03/01 01:21:09;;;;;;;0.50;0.50;;;;;;;6.79;100.00;100135.28;4996430;28;20221;-65
2023/03/01 01:23:36;;;;;;;0.50;0.50;;;;;;;6.83;100.00;100146.34;5004707;28;20229;-64
2023/03/01 01:26:09;;;;;;;0.60;0.60;;;;;;;6.85;100.00;100140.38;5000534;28;20697;-65
2023/03/01 01:28:36;;;;;;;0.50;0.50;;;;;;;6.88;100.00;100134.44;5002227;28;20205;-65
2023/03/01 01:31:03;;;;;;;0.50;0.50;;;;;;;6.86;100.00;100143.78;5016018;28;20226;-64
2023/03/01 01:33:30;;;;;;;0.63;0.63;;;;;;;6.79;100.00;100119.16;5020237;28;20202;-64
2023/03/01 01:35:56;;;;;;;0.60;0.60;;;;;;;6.81;100.00;100132.75;5019893;28;20214;-64
2023/03/01 01:38:24;;;;;;;0.60;0.60;;;;;;;6.80;100.00;100129.34;5023147;28;20693;-64
2023/03/01 01:40:52;;;;;;;0.60;0.60;;;;;;;6.83;100.00;100136.13;5018539;28;20194;-65
2023/03/01 01:43:23;;;;;;;0.63;0.63;;;;;;;6.83;100.00;100136.13;5015648;28;20205;-64
2023/03/01 01:45:51;;;;;;;0.67;0.67;;;;;;;6.80;100.00;100125.97;5025744;28;20202;-65
2023/03/01 01:48:21;;;;;;;0.50;0.50;;;;;;;6.75;100.00;100107.31;5015824;28;20210;-64
2023/03/01 01:50:58;;;;;;;0.60;0.60;;;;;;;6.83;100.00;100128.50;5022697;28;20197;-64
2023/03/01 01:53:26;;;;;;;0.57;0.57;;;;;;;6.48;100.00;100077.66;5026681;28;20202;-64
2023/03/01 01:55:57;;;;;;;0.60;0.60;;;;;;;6.80;100.00;100131.91;5023376;28;20197;-65
2023/03/01 01:58:29;;;;;;;0.50;0.50;;;;;;;6.80;100.00;100125.97;5018166;28;20260;-64
2023/03/01 02:00:56;;;;;;;0.53;0.53;;;;;;;6.58;100.00;100103.94;5022848;28;20197;-65
2023/03/01 02:03:28;;;;;;;0.60;0.60;;;;;;;6.69;100.00;100130.22;5019413;28;20217;-64
2023/03/01 02:06:01;;;;;;;0.60;0.60;;;;;;;6.75;100.00;100132.78;5012326;28;20215;-64
2023/03/01 02:08:31;;;;;;;0.50;0.50;;;;;;;6.49;100.00;100107.38;5019958;28;20555;-64
2023/03/01 02:11:00;;;;;;;0.50;0.50;;;;;;;6.74;100.00;100131.94;5019754;28;20198;-64
2023/03/01 02:13:29;;;;;;;0.70;0.70;;;;;;;6.73;100.00;100124.28;5021830;28;20321;-64
2023/03/01 02:15:56;;;;;;;0.50;0.50;;;;;;;6.70;100.00;100134.47;5021225;28;20740;-64
2023/03/01 02:18:24;;;;;;;0.67;0.67;;;;;;;6.72;100.00;100120.06;5026402;28;20202;-64
2023/03/01 02:21:05;;;;;;;0.70;0.70;;;;;;;6.68;100.00;100123.44;5019694;28;20222;-64
2023/03/01 02:23:33;;;;;;;0.50;0.50;;;;;;;6.70;100.00;100119.19;5019551;28;20678;-64
2023/03/01 02:26:07;;;;;;;0.60;0.60;;;;;;;6.73;100.00;100114.09;5017545;28;20205;-64
2023/03/01 02:28:37;;;;;;;0.40;0.40;;;;;;;6.71;100.00;100126.00;5017833;28;20194;-63
2023/03/01 02:33:52;;;;;;;0.73;0.73;;;;;;;6.62;100.00;100129.41;5025037;28;20204;-63
2023/03/01 02:36:21;;;;;;;0.50;0.50;;;;;;;6.63;100.00;100122.59;5020746;28;20212;-64
2023/03/01 02:38:48;;;;;;;0.67;0.67;;;;;;;6.66;100.00;100130.22;5018411;28;20198;-64
2023/03/01 02:41:18;;;;;;;0.60;0.60;;;;;;;6.61;100.00;100124.31;5026476;28;20193;-63
2023/03/01 02:43:47;;;;;;;0.53;0.53;;;;;;;6.58;100.00;100120.09;5022310;28;20288;-64
2023/03/01 02:46:19;;;;;;;0.67;0.67;;;;;;;6.60;100.00;100128.56;5020163;28;20674;-64
2023/03/01 02:48:49;;;;;;;0.40;0.40;;;;;;;6.63;100.00;100120.06;5025702;28;20201;-64
2023/03/01 02:51:27;;;;;;;0.50;0.50;;;;;;;6.63;100.00;100115.81;5020045;28;20202;-64
2023/03/01 02:54:05;;;;;;;0.50;0.50;;;;;;;6.48;100.00;100103.13;5024010;28;20661;-64
2023/03/01 02:56:32;;;;;;;0.60;0.60;;;;;;;6.61;100.00;100109.03;5018806;28;20662;-64
2023/03/01 02:59:02;;;;;;;0.70;0.70;;;;;;;6.61;100.00;100120.06;5019173;28;20676;-64
2023/03/01 03:01:36;;;;;;;0.60;0.60;;;;;;;6.59;100.00;100120.94;5017423;28;20206;-64
2023/03/01 03:04:07;;;;;;;0.50;0.50;;;;;;;6.54;100.00;100115.00;5013398;28;20659;-63
2023/03/01 03:06:34;;;;;;;0.50;0.50;;;;;;;6.57;100.00;100117.53;5018177;28;20217;-63
2023/03/01 03:09:01;;;;;;;0.50;0.50;;;;;;;6.46;100.00;100106.53;5025224;28;20741;-64
2023/03/01 03:11:28;;;;;;;0.50;0.50;;;;;;;6.53;100.00;100119.22;5019906;28;20198;-64
2023/03/01 03:13:55;;;;;;;0.50;0.50;;;;;;;6.54;100.00;100115.00;5019646;28;20202;-63
2023/03/01 03:16:24;;;;;;;0.60;0.60;;;;;;;6.56;100.00;100113.31;5022975;28;20649;-64
2023/03/01 03:18:51;;;;;;;0.50;0.50;;;;;;;6.51;100.00;100109.91;5018649;28;20680;-64
2023/03/01 03:21:18;;;;;;;0.60;0.60;;;;;;;6.49;100.00;100109.06;5020626;28;20217;-64
2023/03/01 03:23:45;;;;;;;0.57;0.57;;;;;;;6.54;100.00;100107.34;5021425;28;20190;-63
2023/03/01 03:26:14;;;;;;;0.50;0.50;;;;;;;6.46;100.00;100112.47;5018075;28;20221;-64
2023/03/01 03:28:41;;;;;;;0.70;0.70;;;;;;;6.49;100.00;100107.38;5021412;28;20204;-64
2023/03/01 03:31:09;;;;;;;0.50;0.50;;;;;;;6.53;100.00;100105.63;5020629;28;20232;-64
2023/03/01 03:33:38;;;;;;;0.73;0.73;;;;;;;6.47;100.00;100116.69;5018251;28;20276;-64
2023/03/01 03:36:05;;;;;;;0.70;0.70;;;;;;;6.50;100.00;100120.94;5018449;28;20197;-64
2023/03/01 03:38:32;;;;;;;0.53;0.53;;;;;;;6.49;100.00;100119.25;5021197;28;20221;-64
2023/03/01 03:41:04;;;;;;;0.50;0.50;;;;;;;6.47;100.00;100115.84;5027292;28;20193;-65
2023/03/01 03:43:33;;;;;;;0.60;0.60;;;;;;;6.46;100.00;100109.09;5018560;28;20633;-64
2023/03/01 03:46:00;;;;;;;0.60;0.60;;;;;;;6.46;100.00;100114.19;5020040;28;20240;-64
2023/03/01 03:48:28;;;;;;;0.70;0.70;;;;;;;6.42;100.00;100100.59;5024228;28;20545;-64
2023/03/01 03:50:57;;;;;;;0.70;0.70;;;;;;;6.44;100.00;100100.56;5019344;28;20210;-64
2023/03/01 03:53:26;;;;;;;0.53;0.53;;;;;;;6.33;100.00;100083.63;5022367;28;20229;-63
2023/03/01 03:55:53;;;;;;;0.60;0.60;;;;;;;6.45;100.00;100103.13;5026968;28;20201;-64
2023/03/01 03:58:22;;;;;;;0.60;0.60;;;;;;;6.43;100.00;100109.91;5022302;28;20208;-63
2023/03/01 04:00:51;;;;;;;0.70;0.70;;;;;;;6.48;100.00;100112.47;5025217;28;20197;-64
2023/03/01 04:03:19;;;;;;;0.70;0.70;;;;;;;6.44;100.00;100111.63;5028337;28;20201;-64
2023/03/01 04:05:47;;;;;;;0.97;0.97;;;;;;;6.44;100.00;100106.53;5020956;28;20636;-64
2023/03/01 04:08:15;;;;;;;0.70;0.70;;;;;;;6.37;100.00;100109.06;5016229;28;20206;-64
2023/03/01 04:10:44;;;;;;;0.60;0.60;;;;;;;6.40;100.00;100109.09;5020459;28;20717;-64
2023/03/01 04:13:13;;;;;;;0.57;0.57;;;;;;;6.43;100.00;100106.53;5023938;28;20693;-63
2023/03/01 04:15:42;;;;;;;0.60;0.60;;;;;;;6.42;100.00;100109.94;5024842;28;20209;-65
2023/03/01 04:18:10;;;;;;;0.57;0.57;;;;;;;6.46;100.00;100114.19;5016453;28;20261;-65
2023/03/01 04:20:37;;;;;;;0.53;0.53;;;;;;;6.33;100.00;100098.91;5014389;28;20213;-64
2023/03/01 04:23:12;;;;;;;0.63;0.63;;;;;;;6.47;100.00;100110.75;5022576;28;20206;-65
2023/03/01 04:25:43;;;;;;;0.50;0.50;;;;;;;6.53;100.00;100116.69;5024994;28;20204;-64
2023/03/01 04:28:10;;;;;;;0.50;0.50;;;;;;;6.53;100.00;100120.94;5023747;28;20198;-65
2023/03/01 04:30:37;;;;;;;0.70;0.70;;;;;;;6.50;100.00;100115.84;5031650;28;20221;-65
2023/03/01 04:33:05;;;;;;;0.80;0.80;;;;;;;6.59;100.00;100108.19;5021376;28;20276;-64
2023/03/01 04:35:32;;;;;;;0.60;0.60;;;;;;;6.59;100.00;100111.56;5020261;28;20248;-64
2023/03/01 04:37:59;;;;;;;0.50;0.50;;;;;;;6.57;100.00;100112.44;5016187;28;20194;-64
2023/03/01 04:40:26;;;;;;;0.50;0.50;;;;;;;6.60;100.00;100118.38;5016282;28;20216;-65
2023/03/01 04:42:54;;;;;;;0.60;0.60;;;;;;;6.60;100.00;100122.59;5019556;28;20198;-64
2023/03/01 04:45:22;;;;;;;0.60;0.60;;;;;;;6.52;100.00;100114.16;5026610;28;20201;-63
2023/03/01 04:47:49;;;;;;;0.60;0.60;;;;;;;6.46;100.00;100121.81;5025454;28;20201;-63
2023/03/01 04:50:20;;;;;;;0.47;0.47;;;;;;;6.50;100.00;100131.13;5026874;28;20204;-63
2023/03/01 04:52:48;;;;;;;0.50;0.50;;;;;;;6.51;100.00;100126.03;5013632;28;20217;-65
2023/03/01 04:55:15;;;;;;;0.67;0.67;;;;;;;6.51;100.00;100122.63;5027560;28;20696;-64
2023/03/01 04:57:42;;;;;;;0.50;0.50;;;;;;;6.48;100.00;100117.56;5018788;28;20204;-64
2023/03/01 05:00:20;;;;;;;0.50;0.50;;;;;;;6.48;100.00;100123.50;5028545;28;20202;-65
2023/03/01 05:02:54;;;;;;;1.70;1.70;;;;;;;6.30;100.00;100104.00;5017475;28;20201;-64
2023/03/01 05:05:25;;;;;;;0.60;0.60;;;;;;;6.43;100.00;100119.28;5025259;28;20252;-64
2023/03/01 05:07:53;;;;;;;0.50;0.50;;;;;;;6.40;100.00;100115.00;5022019;28;20307;-64
2023/03/01 05:10:19;;;;;;;0.67;0.67;;;;;;;6.39;100.00;100112.50;5025351;28;20264;-64
2023/03/01 05:12:47;;;;;;;0.60;0.60;;;;;;;6.38;100.00;100111.63;5020499;28;20668;-63
2023/03/01 05:15:15;;;;;;;0.60;0.60;;;;;;;6.42;100.00;100107.38;5018808;28;20629;-64
2023/03/01 05:17:42;;;;;;;0.50;0.50;;;;;;;6.41;100.00;100110.78;5023746;28;20279;-63
2023/03/01 05:20:11;;;;;;;0.60;0.60;;;;;;;6.41;100.00;100111.63;5022713;28;20197;-64
2023/03/01 05:22:38;;;;;;;0.60;0.60;;;;;;;6.45;100.00;100112.47;5024508;28;20194;-64
2023/03/01 05:25:06;;;;;;;0.90;0.90;;;;;;;6.50;100.00;100110.75;5023176;28;20205;-65
2023/03/01 05:27:34;;;;;;;0.50;0.50;;;;;;;6.45;100.00;100117.56;5019655;28;20203;-64
2023/03/01 05:30:13;;;;;;;0.50;0.50;;;;;;;6.46;100.00;100114.19;5026359;28;20228;-65
2023/03/01 05:32:43;;;;;;;0.50;0.50;;;;;;;6.50;100.00;100120.94;5020106;28;20788;-64
2023/03/01 05:35:12;;;;;;;0.60;0.60;;;;;;;6.53;100.00;100121.78;5020482;28;20205;-63
2023/03/01 05:37:41;;;;;;;0.80;0.80;;;;;;;6.54;100.00;100122.63;5024435;28;20206;-65
2023/03/01 05:40:15;;;;;;;0.47;0.47;;;;;;;6.53;100.00;100126.88;5026955;28;20201;-65
2023/03/01 05:42:43;;;;;;;0.50;0.50;;;;;;;6.57;100.00;100127.72;5020619;28;20195;-64
2023/03/01 05:45:12;;;;;;;0.60;0.60;;;;;;;6.62;100.00;100129.41;5021680;28;20662;-64
2023/03/01 05:47:43;;;;;;;0.50;0.50;;;;;;;6.57;100.00;100132.81;5019780;28;20225;-64
2023/03/01 05:50:18;;;;;;;1.47;1.47;;;;;;;6.51;100.00;100132.81;5023323;28;20252;-64
2023/03/01 05:52:46;;;;;;;0.50;0.50;;;;;;;6.54;100.00;100138.78;5023127;28;20217;-64
2023/03/01 05:55:13;;;;;;;0.50;0.50;;;;;;;6.63;100.00;100148.06;5017199;28;20209;-67
2023/03/01 05:57:40;;;;;;;0.70;0.70;;;;;;;6.54;100.00;100148.09;5020441;28;20209;-67
2023/03/01 06:00:10;;;;;;;0.50;0.50;;;;;;;6.49;100.00;100144.72;5015096;28;20661;-68
2023/03/01 06:02:37;;;;;;;0.50;0.50;;;;;;;6.54;100.00;100154.06;5001754;28;20687;-67
2023/03/01 06:05:07;;;;;;;0.60;0.60;;;;;;;6.57;100.00;100154.03;5014046;28;20202;-67
2023/03/01 06:07:34;;;;;;;0.53;0.53;;;;;;;6.52;100.00;100154.91;5024992;28;20197;-67
2023/03/01 06:10:02;;;;;;;0.70;0.70;;;;;;;6.57;100.00;100154.03;5017360;28;20221;-64
2023/03/01 06:12:32;;;;;;;0.70;0.70;;;;;;;6.53;100.00;100156.59;5020945;28;20210;-64
2023/03/01 06:14:59;;;;;;;0.70;0.70;;;;;;;6.53;100.00;100149.78;5018355;28;20559;-64
2023/03/01 06:17:26;;;;;;;0.70;0.70;;;;;;;6.58;100.00;100144.72;5020805;28;20221;-64
2023/03/01 06:19:52;;;;;;;0.67;0.67;;;;;;;6.59;100.00;100148.97;5015081;28;20264;-65
2023/03/01 06:22:20;;;;;;;0.60;0.60;;;;;;;6.54;100.00;100143.84;5015448;28;20252;-63
2023/03/01 06:24:47;;;;;;;0.60;0.60;;;;;;;6.59;100.00;100142.13;5015598;28;20267;-63
2023/03/01 06:27:14;;;;;;;0.63;0.63;;;;;;;6.55;100.00;100144.72;5015155;28;20210;-64
2023/03/01 06:29:41;;;;;;;0.50;0.50;;;;;;;6.56;100.00;100148.97;5020700;28;20230;-64
2023/03/01 06:32:08;;;;;;;0.60;0.60;;;;;;;6.53;100.00;100148.94;5010676;28;20206;-63
2023/03/01 06:34:35;;;;;;;0.57;0.57;;;;;;;6.60;100.00;100150.63;5018950;28;20746;-63
2023/03/01 06:37:05;;;;;;;0.80;0.80;;;;;;;6.60;100.00;100148.94;5025929;28;20205;-65
2023/03/01 06:39:33;;;;;;;0.83;0.83;;;;;;;6.67;100.00;100148.06;5012948;28;20205;-64
2023/03/01 06:42:00;;;;;;;0.60;0.60;;;;;;;6.71;100.00;100146.38;5013417;28;20209;-64
2023/03/01 06:44:27;;;;;;;0.70;0.70;;;;;;;6.54;100.00;100117.53;5011634;28;20248;-64
2023/03/01 06:46:54;;;;;;;0.50;0.50;;;;;;;6.68;100.00;100157.44;5018261;28;20197;-65
2023/03/01 06:49:21;;;;;;;1.10;1.10;;;;;;;6.76;100.00;100155.69;5010963;28;20209;-65
2023/03/01 06:51:48;;;;;;;0.50;0.50;;;;;;;6.80;100.00;100159.09;5015175;28;20197;-65
2023/03/01 06:54:15;;;;;;;0.50;0.50;;;;;;;6.76;100.00;100140.41;5017166;28;20452;-62
2023/03/01 06:56:43;;;;;;;0.40;0.40;;;;;;;6.87;100.00;100158.22;5023016;28;20202;-62
2023/03/01 06:59:10;;;;;;;0.40;0.40;;;;;;;6.88;100.00;100154.81;5023529;28;20210;-62
2023/03/01 07:01:36;;;;;;;0.60;0.60;;;;;;;6.92;100.00;100161.59;5016420;28;20212;-62
2023/03/01 07:04:03;;;;;;;0.50;0.50;;;;;;;6.84;100.00;100159.09;5017679;28;20235;-62
2023/03/01 07:06:30;;;;;;;0.50;0.50;;;;;;;6.88;100.00;100165.84;5019466;28;20681;-62
2023/03/01 07:08:57;;;;;;;0.50;0.50;;;;;;;6.97;100.00;100159.88;5020916;28;20244;-62
2023/03/01 07:11:24;;;;;;;0.70;0.70;;;;;;;6.92;100.00;100153.94;5015948;28;20268;-62
2023/03/01 07:13:52;;;;;;;0.63;0.63;;;;;;;7.01;100.00;100151.34;5018713;28;20690;-62
2023/03/01 07:16:20;;;;;;;0.70;0.70;;;;;;;7.05;100.00;100160.69;5015712;28;20202;-62
2023/03/01 07:18:47;;;;;;;0.40;0.40;;;;;;;7.00;100.00;100154.78;5020597;28;20241;-62
2023/03/01 07:21:16;;;;;;;0.43;0.43;;;;;;;7.03;100.00;100149.66;5013860;28;20586;-62
2023/03/01 07:23:43;;;;;;;0.50;0.50;;;;;;;7.11;100.00;100157.28;5017544;28;20736;-62
2023/03/01 07:26:09;;;;;;;0.63;0.63;;;;;;;7.01;100.00;100136.06;5021192;28;20205;-62
2023/03/01 07:28:38;;;;;;;0.50;0.50;;;;;;;7.12;100.00;100164.91;5023134;28;20213;-62
2023/03/01 07:31:07;;;;;;;0.60;0.60;;;;;;;6.99;100.00;100130.13;5028980;28;20236;-61
2023/03/01 07:33:34;;;;;;;0.63;0.63;;;;;;;7.18;100.00;100159.78;5013888;28;20229;-61
2023/03/01 07:36:02;;;;;;;0.50;0.50;;;;;;;7.17;100.00;100152.97;5017438;28;20720;-61
2023/03/01 07:38:30;;;;;;;0.50;0.50;;;;;;;7.21;100.00;100153.81;5018022;28;20265;-62
2023/03/01 07:41:01;;;;;;;0.50;0.50;;;;;;;7.18;100.00;100149.59;5016944;28;20214;-63
2023/03/01 07:43:28;;;;;;;0.60;0.60;;;;;;;7.19;100.00;100151.28;5013895;28;20212;-62
2023/03/01 07:45:55;;;;;;;0.60;0.60;;;;;;;7.19;100.00;100151.28;5016611;28;20209;-63
2023/03/01 07:48:23;;;;;;;0.50;0.50;;;;;;;7.16;100.00;100156.41;5019993;28;20245;-62
2023/03/01 07:50:50;;;;;;;0.60;0.60;;;;;;;7.15;100.00;100144.50;5026241;28;20205;-63
2023/03/01 07:53:16;;;;;;;0.53;0.53;;;;;;;7.13;100.00;100145.38;5027357;28;20221;-62
2023/03/01 07:55:43;;;;;;;0.50;0.50;;;;;;;7.13;100.00;100141.13;5014067;28;20208;-63
2023/03/01 07:58:10;;;;;;;0.60;0.60;;;;;;;7.20;100.00;100140.25;5014840;28;20206;-62
2023/03/01 08:00:37;;;;;;;0.60;0.60;;;;;;;7.25;100.00;100140.22;5015537;28;20699;-63
2023/03/01 08:03:04;;;;;;;0.80;0.80;;;;;;;7.26;100.00;100137.66;5024997;28;20205;-62
2023/03/01 08:05:33;;;;;;;0.50;0.50;;;;;;;7.20;100.00;100121.53;5014904;28;20685;-62
2023/03/01 08:08:00;;;;;;;0.50;0.50;;;;;;;7.36;100.00;100144.41;5015536;28;20578;-62
2023/03/01 08:10:27;;;;;;;0.47;0.47;;;;;;;7.31;100.00;100145.28;5018982;28;20464;-61
2023/03/01 08:12:53;;;;;;;0.50;0.50;;;;;;;7.30;100.00;100148.69;5023735;28;20209;-62
2023/03/01 08:15:20;;;;;;;0.50;0.50;;;;;;;7.36;100.00;100151.22;5012094;28;20229;-63
2023/03/01 08:17:50;;;;;;;0.80;0.80;;;;;;;7.36;100.00;100141.88;5013866;28;20731;-62
2023/03/01 08:20:17;;;;;;;0.50;0.50;;;;;;;7.38;100.00;100142.69;5017536;28;20696;-62
2023/03/01 08:22:45;;;;;;;0.90;0.90;;;;;;;7.43;100.00;100149.47;5025229;28;20221;-62
2023/03/01 08:25:12;;;;;;;0.53;0.53;;;;;;;7.43;100.00;100139.28;5028556;28;20202;-61
2023/03/01 08:27:39;;;;;;;0.45;0.45;;;;;;;7.46;100.00;100149.47;5020353;28;20475;-65
2023/03/01 08:30:07;;;;;;;0.40;0.40;;;;;;;7.62;100.00;100151.06;5018605;28;20456;-66
2023/03/01 08:32:38;;;;;;;0.50;0.50;;;;;;;7.60;100.00;100142.56;5015222;28;20261;-65
2023/03/01 08:35:05;;;;;;;0.60;0.60;;;;;;;7.71;100.00;100143.34;5018045;28;20625;-67
2023/03/01 08:37:33;;;;;;;0.60;0.60;;;;;;;7.72;100.00;100138.22;5021744;28;20205;-66
2023/03/01 08:40:03;;;;;;;0.60;0.60;;;;;;;7.73;100.00;100139.06;5021200;28;20202;-66
2023/03/01 08:42:30;;;;;;;0.53;0.53;;;;;;;7.77;100.00;100140.75;5018851;28;20221;-67
2023/03/01 08:44:56;;;;;;;0.57;0.57;;;;;;;7.66;100.00;100137.41;5025750;28;20237;-65
2023/03/01 08:47:23;;;;;;;0.50;0.50;;;;;;;7.60;100.00;100145.97;5027949;28;20210;-66
2023/03/01 08:49:51;;;;;;;0.60;0.60;;;;;;;7.60;100.00;100147.66;5016945;28;20206;-66
2023/03/01 08:52:18;;;;;;;0.50;0.50;;;;;;;7.62;100.00;100151.06;5021709;28;20296;-66
2023/03/01 08:54:44;;;;;;;0.60;0.60;;;;;;;7.56;100.00;100146.00;5019560;28;20217;-66
2023/03/01 08:57:12;;;;;;;0.57;0.57;;;;;;;7.60;100.00;100132.34;5014990;28;20578;-66
2023/03/01 08:59:40;;;;;;;0.40;0.40;;;;;;;7.64;100.00;100134.03;5014700;28;20257;-66
2023/03/01 09:02:12;;;;;;;0.60;0.60;;;;;;;7.62;100.00;100130.66;5018719;28;20216;-66
2023/03/01 09:04:39;;;;;;;0.50;0.50;;;;;;;7.65;100.00;100136.59;5024028;28;20218;-66
2023/03/01 09:07:06;;;;;;;0.60;0.60;;;;;;;7.58;100.00;100128.97;5017528;28;20213;-66
2023/03/01 09:09:33;;;;;;;0.40;0.40;;;;;;;7.50;100.00;100115.41;5020669;28;20216;-66
2023/03/01 09:12:00;;;;;;;0.63;0.63;;;;;;;7.68;100.00;100143.38;5016871;28;20198;-65
2023/03/01 09:14:28;;;;;;;0.50;0.50;;;;;;;7.52;100.00;100126.47;5019177;28;20280;-66
2023/03/01 09:16:55;;;;;;;0.50;0.50;;;;;;;7.68;100.00;100136.56;5014587;28;20202;-66
2023/03/01 09:19:23;;;;;;;0.40;0.40;;;;;;;7.78;100.00;100145.00;5023183;28;20233;-67
2023/03/01 09:21:52;;;;;;;0.53;0.53;;;;;;;7.84;100.00;100142.41;5015474;28;20269;-66
2023/03/01 09:24:22;;;;;;;0.50;0.50;;;;;;;7.75;100.00;100142.47;5031333;28;20197;-67
2023/03/01 09:26:49;;;;;;;0.60;0.60;;;;;;;7.67;100.00;100146.75;5032635;28;20197;-67
2023/03/01 09:29:17;;;;;;;0.50;0.50;;;;;;;7.69;100.00;100142.53;5026777;28;20209;-67
2023/03/01 09:31:45;;;;;;;0.50;0.50;;;;;;;7.67;100.00;100134.00;5023753;28;20215;-67
2023/03/01 09:34:13;;;;;;;0.60;0.60;;;;;;;7.77;100.00;100140.75;5028844;28;20221;-66
2023/03/01 09:36:40;;;;;;;0.50;0.50;;;;;;;7.74;100.00;100136.53;5027661;28;20284;-67
2023/03/01 09:39:07;;;;;;;0.50;0.50;;;;;;;7.73;100.00;100136.50;5025237;28;20689;-67
2023/03/01 09:41:45;;;;;;;0.50;0.50;;;;;;;7.85;100.00;100128.78;5024136;28;21032;-66
2023/03/01 09:44:21;;;;;;;0.87;0.87;;;;;;;7.87;100.00;100127.06;5031357;28;20240;-67
2023/03/01 09:46:51;;;;;;;0.60;0.60;;;;;;;7.87;100.00;100129.63;5032265;28;20197;-68
2023/03/01 09:49:21;;;;;;;0.50;0.50;;;;;;;7.90;100.00;100129.59;5031264;28;20201;-67
2023/03/01 09:51:56;;;;;;;0.50;0.50;;;;;;;7.91;100.00;100133.84;5012887;28;20194;-66
2023/03/01 09:54:23;;;;;;;1.17;1.13;;;;;;;7.98;100.00;100127.81;5012298;28;20224;-67
2023/03/01 09:57:07;;;;;;;0.50;0.50;;;;;;;7.97;100.00;100128.69;5012417;28;20205;-65
2023/03/01 09:59:50;;;;;;;0.60;0.60;;;;;;;7.97;100.00;100118.47;5015204;28;20209;-65
2023/03/01 10:02:28;;;;;;;0.60;0.60;;;;;;;8.03;100.00;100117.56;5014049;28;20202;-66
2023/03/01 10:05:04;;;;;;;0.50;0.50;;;;;;;8.13;100.00;100116.63;5017521;28;20682;-66
2023/03/01 10:07:40;;;;;;;0.50;0.50;;;;;;;8.09;100.00;100107.28;5022358;28;20205;-65
2023/03/01 10:10:09;;;;;;;0.50;0.50;;;;;;;7.96;100.00;100101.44;5020300;28;20208;-67
2023/03/01 10:12:41;;;;;;;0.60;0.60;;;;;;;8.13;100.00;100112.38;5015681;28;20204;-66
2023/03/01 10:15:12;;;;;;;0.73;0.73;;;;;;;8.21;100.00;100102.91;5015335;28;20595;-67
2023/03/01 10:17:49;;;;;;;0.77;0.77;;;;;;;8.07;100.00;100081.78;5021486;28;20296;-66
2023/03/01 10:20:21;;;;;;;0.90;0.90;;;;;;;8.18;100.00;100104.66;5017633;28;20215;-67
2023/03/01 10:22:51;;;;;;;0.50;0.50;;;;;;;8.18;100.00;100113.16;5015230;28;20202;-66
2023/03/01 10:25:30;;;;;;;0.43;0.43;;;;;;;8.18;100.00;100102.09;5010009;28;20336;-67
2023/03/01 10:28:06;;;;;;;0.53;0.53;;;;;;;8.20;100.00;100103.81;5018142;28;20202;-66
2023/03/01 10:30:39;;;;;;;0.50;0.50;;;;;;;8.09;100.00;100113.25;5022353;28;20355;-67
2023/03/01 10:33:15;;;;;;;0.50;0.50;;;;;;;8.04;100.00;100109.91;5020893;28;20233;-67
2023/03/01 10:35:41;;;;;;;0.50;0.50;;;;;;;8.05;100.00;100106.47;5015393;28;20256;-67
2023/03/01 10:38:10;;;;;;;0.50;0.50;;;;;;;8.10;100.00;100099.63;5019314;28;20284;-67
2023/03/01 10:40:52;;;;;;;0.50;0.50;;;;;;;8.05;100.00;100100.53;5010745;28;21500;-67
2023/03/01 10:43:19;;;;;;;0.40;0.40;;;;;;;8.11;100.00;100103.88;5017402;28;20224;-67
2023/03/01 10:45:46;;;;;;;0.50;0.50;;;;;;;8.12;100.00;100097.91;5020934;28;20202;-67
2023/03/01 10:48:18;;;;;;;0.50;0.50;;;;;;;8.05;100.00;100096.25;5014058;28;20209;-66
2023/03/01 10:50:46;;;;;;;0.40;0.40;;;;;;;8.09;100.00;100097.09;5012303;28;20205;-68
2023/03/01 10:53:26;;;;;;;0.60;0.60;;;;;;;8.14;100.00;100083.41;5024640;28;20202;-65
2023/03/01 10:56:05;;;;;;;0.47;0.47;;;;;;;8.19;100.00;100084.22;5025186;28;20612;-63
2023/03/01 10:58:33;;;;;;;0.50;0.50;;;;;;;8.11;100.00;100074.94;5021452;28;20213;-65
2023/03/01 11:01:02;;;;;;;0.40;0.40;;;;;;;8.11;100.00;100070.66;5021854;28;20212;-65
2023/03/01 11:03:33;;;;;;;0.50;0.50;;;;;;;8.13;100.00;100071.53;5022272;28;20697;-67
2023/03/01 11:06:02;;;;;;;0.60;0.60;;;;;;;8.17;100.00;100070.63;5016247;28;20197;-68
2023/03/01 11:08:48;;;;;;;0.60;0.60;;;;;;;8.32;100.00;100067.09;5013846;28;20210;-68
2023/03/01 11:11:24;;;;;;;0.57;0.57;;;;;;;8.26;100.00;100065.44;5015337;28;20205;-66
2023/03/01 11:13:55;;;;;;;0.40;0.40;;;;;;;8.13;100.00;100068.97;5014395;28;20208;-66
2023/03/01 11:16:30;;;;;;;0.50;0.50;;;;;;;8.10;100.00;100043.47;5009001;28;20582;-65
2023/03/01 11:19:02;;;;;;;0.60;0.60;;;;;;;8.00;100.00;100054.63;5019536;28;20211;-66
2023/03/01 11:21:33;;;;;;;0.57;0.57;;;;;;;7.95;100.00;100038.47;5013287;28;20209;-66
2023/03/01 11:24:02;;;;;;;0.53;0.53;;;;;;;7.90;100.00;100045.34;5029206;28;20329;-66
2023/03/01 11:26:32;;;;;;;0.50;0.50;;;;;;;7.86;100.00;100043.69;5027818;28;20571;-66
2023/03/01 11:29:05;;;;;;;0.50;0.50;;;;;;;7.81;100.00;100025.00;5023119;28;20206;-67
2023/03/01 11:31:33;;;;;;;0.50;0.50;;;;;;;7.98;100.00;100038.44;5022122;28;20197;-65
2023/03/01 11:34:10;;;;;;;0.50;0.50;;;;;;;7.93;100.00;100030.84;5015698;28;20663;-65
2023/03/01 11:36:42;;;;;;;0.60;0.60;;;;;;;7.99;100.00;100024.84;5023209;28;20283;-66